Time,TemperatureF,DewpointF,PressureIn,WindDirection,WindDirectionDegrees,WindSpeedMPH,WindSpeedGustMPH,Humidity,HourlyPrecipIn,Conditions,Clouds,dailyrainin,SoftwareType,DateUTC
2013-06-18 00:00:00,66.9,60.2,29.83,West,267,0.0,0.0,79,0.00,RA,,0.00,WeatherDisplay:10.37,2013-06-18 04:00:00,
2013-06-18 00:01:00,66.8,60.1,29.83,West,267,0.0,0.0,79,0.00,RA,,0.00,WeatherDisplay:10.37,2013-06-18 04:01:00,
2013-06-18 00:02:00,66.6,59.9,29.83,West,267,0.0,0.0,79,0.00,RA,,0.00,WeatherDisplay:10.37,2013-06-18 04:02:00,
2013-06-18 00:08:00,66.0,59.3,29.83,West,267,0.0,0.0,79,0.00,RA,,0.00,WeatherDisplay:10.37,2013-06-18 04:08:00,
2013-06-18 00:13:00,65.6,59.3,29.83,West,267,0.0,0.0,80,0.00,CLR,,0.00,WeatherDisplay:10.37,2013-06-18 04:13:00,
2013-06-18 00:18:00,65.3,59.3,29.83,West,267,0.0,0.0,81,0.00,CLR,,0.00,WeatherDisplay:10.37,2013-06-18 04:18:00,
2013-06-18 00:23:00,65.0,59.7,29.83,West,268,0.0,0.0,83,0.00,CLR,,0.00,WeatherDisplay:10.37,2013-06-18 04:23:00,
2013-06-18 00:28:00,64.8,59.9,29.83,West,267,0.0,0.0,84,0.00,CLR,,0.00,WeatherDisplay:10.37,2013-06-18 04:28:00,
2013-06-18 00:33:00,64.8,59.9,29.83,West,267,0.0,0.0,84,0.00,CLR,,0.00,WeatherDisplay:10.37,2013-06-18 04:33:00,
2013-06-18 00:38:00,64.8,59.9,29.83,West,267,0.0,0.0,84,0.00,CLR,,0.00,WeatherDisplay:10.37,2013-06-18 04:38:00,
2013-06-18 00:43:00,64.8,59.9,29.83,West,267,0.0,0.0,84,0.00,CLR,,0.00,WeatherDisplay:10.37,2013-06-18 04:43:00,
2013-06-18 00:48:00,64.5,59.6,29.83,West,267,0.0,0.0,84,0.00,CLR,,0.00,WeatherDisplay:10.37,2013-06-18 04:48:00,
2013-06-18 00:53:00,64.5,59.9,29.82,West,267,0.0,0.0,85,0.00,CLR,,0.00,WeatherDisplay:10.37,2013-06-18 04:53:00,
2013-06-18 00:59:00,64.5,59.9,29.82,West,267,0.0,0.0,85,0.00,CLR,,0.00,WeatherDisplay:10.37,2013-06-18 04:59:00,
2013-06-18 01:04:00,64.5,60.2,29.83,West,267,0.0,0.0,86,0.00,CLR,,0.00,WeatherDisplay:10.37,2013-06-18 05:04:00,
2013-06-18 01:09:00,64.5,60.2,29.83,West,267,0.0,0.0,86,0.00,CLR,,0.00,WeatherDisplay:10.37,2013-06-18 05:09:00,
2013-06-18 01:14:00,64.7,60.4,29.83,West,267,0.0,0.0,86,0.00,CLR,,0.00,WeatherDisplay:10.37,2013-06-18 05:14:00,
2013-06-18 01:19:00,64.5,60.5,29.83,West,267,0.0,0.0,87,0.00,CLR,,0.00,WeatherDisplay:10.37,2013-06-18 05:19:00,
2013-06-18 01:24:00,64.5,60.5,29.83,West,267,0.0,0.0,87,0.00,CLR,,0.00,WeatherDisplay:10.37,2013-06-18 05:24:00,
2013-06-18 01:29:00,64.2,60.2,29.83,West,267,0.0,0.0,87,0.00,CLR,,0.00,WeatherDisplay:10.37,2013-06-18 05:29:00,
2013-06-18 01:35:00,64.0,60.1,29.83,West,267,0.0,0.0,87,0.00,CLR,,0.00,WeatherDisplay:10.37,2013-06-18 05:35:00,
2013-06-18 01:40:00,63.7,60.1,29.83,West,267,0.0,0.0,88,0.00,CLR,,0.00,WeatherDisplay:10.37,2013-06-18 05:40:00,
2013-06-18 01:45:00,63.7,60.4,29.83,West,267,0.0,0.0,89,0.00,CLR,,0.00,WeatherDisplay:10.37,2013-06-18 05:45:00,
2013-06-18 01:50:00,64.0,60.7,29.82,West,267,0.0,0.0,89,0.00,CLR,,0.00,WeatherDisplay:10.37,2013-06-18 05:50:00,
2013-06-18 01:55:00,63.9,60.6,29.82,West,267,0.0,0.0,89,0.00,CLR,,0.00,WeatherDisplay:10.37,2013-06-18 05:55:00,
2013-06-18 02:00:00,63.9,60.9,29.83,West,267,0.0,0.0,90,0.00,CLR,,0.00,WeatherDisplay:10.37,2013-06-18 06:00:00,
2013-06-18 02:05:00,63.5,60.2,29.83,ENE,61,0.0,0.0,89,0.00,CLR,,0.00,WeatherDisplay:10.37,2013-06-18 06:05:00,
2013-06-18 02:11:00,63.4,60.4,29.82,NE,44,0.0,0.0,90,0.00,CLR,,0.00,WeatherDisplay:10.37,2013-06-18 06:11:00,
2013-06-18 02:16:00,63.9,60.9,29.82,NE,44,0.0,0.0,90,0.00,CLR,,0.00,WeatherDisplay:10.37,2013-06-18 06:16:00,
2013-06-18 02:21:00,63.5,59.9,29.82,NE,44,0.0,0.0,88,0.00,CLR,,0.00,WeatherDisplay:10.37,2013-06-18 06:21:00,
2013-06-18 02:26:00,63.5,60.2,29.82,NE,44,0.0,0.0,89,0.00,CLR,,0.00,WeatherDisplay:10.37,2013-06-18 06:26:00,
2013-06-18 02:31:00,63.4,59.8,29.82,NE,44,0.0,0.0,88,0.00,CLR,,0.00,WeatherDisplay:10.37,2013-06-18 06:31:00,
2013-06-18 02:36:00,63.1,59.5,29.82,NE,44,0.0,0.0,88,0.00,CLR,,0.00,WeatherDisplay:10.37,2013-06-18 06:36:00,
2013-06-18 02:41:00,62.6,59.3,29.82,NE,44,0.0,0.0,89,0.00,CLR,,0.00,WeatherDisplay:10.37,2013-06-18 06:41:00,
2013-06-18 02:47:00,62.6,59.9,29.82,NE,44,0.0,0.0,91,0.00,CLR,,0.00,WeatherDisplay:10.37,2013-06-18 06:47:00,
2013-06-18 02:52:00,63.1,60.4,29.82,NE,44,0.0,0.0,91,0.00,CLR,,0.00,WeatherDisplay:10.37,2013-06-18 06:52:00,
2013-06-18 02:57:00,63.2,60.2,29.82,NE,44,0.0,0.0,90,0.00,CLR,,0.00,WeatherDisplay:10.37,2013-06-18 06:57:00,
2013-06-18 03:03:00,62.9,59.9,29.81,NE,44,0.0,0.0,90,0.00,CLR,,0.00,WeatherDisplay:10.37,2013-06-18 07:03:00,
2013-06-18 03:08:00,62.9,60.2,29.81,NE,44,0.0,0.0,91,0.00,CLR,,0.00,WeatherDisplay:10.37,2013-06-18 07:08:00,
2013-06-18 03:13:00,62.7,59.7,29.81,NE,44,0.0,0.0,90,0.00,CLR,,0.00,WeatherDisplay:10.37,2013-06-18 07:13:00,
2013-06-18 03:18:00,62.4,59.7,29.81,NE,44,0.0,0.0,91,0.00,CLR,,0.00,WeatherDisplay:10.37,2013-06-18 07:18:00,
2013-06-18 03:23:00,62.4,59.7,29.81,NE,44,0.0,0.0,91,0.00,CLR,,0.00,WeatherDisplay:10.37,2013-06-18 07:23:00,
2013-06-18 03:28:00,62.6,59.9,29.81,NE,44,0.0,0.0,91,0.00,CLR,,0.00,WeatherDisplay:10.37,2013-06-18 07:28:00,
2013-06-18 03:33:00,62.4,59.7,29.81,NE,44,0.0,0.0,91,0.00,CLR,,0.00,WeatherDisplay:10.37,2013-06-18 07:33:00,
2013-06-18 03:39:00,62.3,59.6,29.81,NE,44,0.0,0.0,91,0.00,CLR,,0.00,WeatherDisplay:10.37,2013-06-18 07:39:00,
2013-06-18 03:44:00,62.4,60.0,29.80,NE,44,0.0,0.0,92,0.00,CLR,,0.00,WeatherDisplay:10.37,2013-06-18 07:44:00,
2013-06-18 03:49:00,62.6,60.2,29.80,NE,44,0.0,0.0,92,0.00,CLR,,0.00,WeatherDisplay:10.37,2013-06-18 07:49:00,
2013-06-18 03:54:00,62.6,59.9,29.80,NE,44,0.0,0.0,91,0.00,CLR,,0.00,WeatherDisplay:10.37,2013-06-18 07:54:00,
2013-06-18 03:59:00,62.3,59.6,29.80,NE,44,0.0,0.0,91,0.00,CLR,,0.00,WeatherDisplay:10.37,2013-06-18 07:59:00,
2013-06-18 04:04:00,62.1,59.7,29.80,NE,44,0.0,0.0,92,0.00,CLR,,0.00,WeatherDisplay:10.37,2013-06-18 08:04:00,
2013-06-18 04:09:00,62.3,59.9,29.80,NE,44,0.0,0.0,92,0.00,CLR,,0.00,WeatherDisplay:10.37,2013-06-18 08:09:00,
2013-06-18 04:15:00,62.4,60.0,29.79,NE,44,0.0,0.0,92,0.00,CLR,,0.00,WeatherDisplay:10.37,2013-06-18 08:15:00,
2013-06-18 04:20:00,62.4,60.0,29.79,NE,44,0.0,0.0,92,0.00,CLR,,0.00,WeatherDisplay:10.37,2013-06-18 08:20:00,
2013-06-18 04:25:00,62.1,59.7,29.79,NE,44,0.0,0.0,92,0.00,CLR,,0.00,WeatherDisplay:10.37,2013-06-18 08:25:00,
2013-06-18 04:30:00,62.1,59.7,29.79,NE,44,0.0,0.0,92,0.00,CLR,,0.00,WeatherDisplay:10.37,2013-06-18 08:30:00,
2013-06-18 04:35:00,62.1,59.7,29.80,NE,44,0.0,0.0,92,0.00,CLR,,0.00,WeatherDisplay:10.37,2013-06-18 08:35:00,
2013-06-18 04:40:00,62.3,59.9,29.80,NE,44,0.0,0.0,92,0.00,CLR,,0.00,WeatherDisplay:10.37,2013-06-18 08:40:00,
2013-06-18 04:45:00,62.1,59.7,29.79,NE,44,0.0,0.0,92,0.00,CLR,,0.00,WeatherDisplay:10.37,2013-06-18 08:45:00,
2013-06-18 04:50:00,62.0,59.6,29.80,NE,44,0.0,0.0,92,0.00,CLR,,0.00,WeatherDisplay:10.37,2013-06-18 08:50:00,
2013-06-18 04:55:00,61.6,59.3,29.80,NE,44,0.0,0.0,92,0.00,CLR,,0.00,WeatherDisplay:10.37,2013-06-18 08:55:00,
2013-06-18 05:00:00,61.8,59.8,29.80,NE,44,0.0,0.0,93,0.00,CLR,,0.00,WeatherDisplay:10.37,2013-06-18 09:00:00,
2013-06-18 05:05:00,61.6,59.3,29.80,NE,44,0.0,0.0,92,0.00,CLR,,0.00,WeatherDisplay:10.37,2013-06-18 09:05:00,
2013-06-18 05:11:00,61.5,59.2,29.80,NE,44,0.0,0.0,92,0.00,CLR,,0.00,WeatherDisplay:10.37,2013-06-18 09:11:00,
2013-06-18 05:16:00,61.3,59.0,29.80,NE,44,0.0,0.0,92,0.00,CLR,,0.00,WeatherDisplay:10.37,2013-06-18 09:16:00,
2013-06-18 05:21:00,61.2,59.2,29.80,NE,44,0.0,0.0,93,0.00,CLR,,0.00,WeatherDisplay:10.37,2013-06-18 09:21:00,
2013-06-18 05:26:00,61.2,59.2,29.80,NE,44,0.0,0.0,93,0.00,CLR,,0.00,WeatherDisplay:10.37,2013-06-18 09:26:00,
2013-06-18 05:31:00,61.0,59.0,29.80,NE,44,0.0,0.0,93,0.00,CLR,,0.00,WeatherDisplay:10.37,2013-06-18 09:31:00,
2013-06-18 05:36:00,61.0,59.0,29.80,NE,44,0.0,0.0,93,0.00,CLR,,0.00,WeatherDisplay:10.37,2013-06-18 09:36:00,
2013-06-18 05:41:00,60.9,58.9,29.81,NE,44,0.0,0.0,93,0.00,CLR,,0.00,WeatherDisplay:10.37,2013-06-18 09:41:00,
2013-06-18 05:46:00,60.9,58.9,29.81,NE,44,0.0,0.0,93,0.00,CLR,,0.00,WeatherDisplay:10.37,2013-06-18 09:46:00,
2013-06-18 05:51:00,61.0,59.0,29.81,NE,44,0.0,0.0,93,0.00,CLR,,0.00,WeatherDisplay:10.37,2013-06-18 09:51:00,
2013-06-18 05:56:00,60.9,58.9,29.81,NE,44,0.0,0.0,93,0.00,CLR,,0.00,WeatherDisplay:10.37,2013-06-18 09:56:00,
2013-06-18 06:02:00,60.9,58.9,29.82,NE,44,0.0,0.0,93,0.00,CLR,,0.00,WeatherDisplay:10.37,2013-06-18 10:02:00,
2013-06-18 06:07:00,61.0,59.0,29.81,NE,44,0.0,0.0,93,0.00,CLR,,0.00,WeatherDisplay:10.37,2013-06-18 10:07:00,
2013-06-18 06:12:00,61.2,59.2,29.82,NE,44,0.0,0.0,93,0.00,CLR,,0.00,WeatherDisplay:10.37,2013-06-18 10:12:00,
2013-06-18 06:17:00,61.3,59.6,29.82,NE,44,0.0,0.0,94,0.00,CLR,,0.00,WeatherDisplay:10.37,2013-06-18 10:17:00,
2013-06-18 06:22:00,61.5,59.8,29.82,NE,44,0.0,0.0,94,0.00,CLR,,0.00,WeatherDisplay:10.37,2013-06-18 10:22:00,
2013-06-18 06:27:00,61.8,60.1,29.82,NE,44,0.0,0.0,94,0.00,CLR,,0.00,WeatherDisplay:10.37,2013-06-18 10:27:00,
2013-06-18 06:32:00,62.0,60.0,29.82,NE,44,0.0,0.0,93,0.00,CLR,,0.00,WeatherDisplay:10.37,2013-06-18 10:32:00,
2013-06-18 06:37:00,62.0,60.0,29.82,NE,44,0.0,0.0,93,0.00,CLR,,0.00,WeatherDisplay:10.37,2013-06-18 10:37:00,
2013-06-18 06:43:00,62.1,60.1,29.82,NE,44,0.0,0.0,93,0.00,CLR,,0.00,WeatherDisplay:10.37,2013-06-18 10:43:00,
2013-06-18 06:48:00,62.1,60.1,29.82,NE,44,0.0,0.0,93,0.00,CLR,,0.00,WeatherDisplay:10.37,2013-06-18 10:48:00,
2013-06-18 06:53:00,62.4,60.3,29.82,NE,44,0.0,0.0,93,0.00,CLR,,0.00,WeatherDisplay:10.37,2013-06-18 10:53:00,
2013-06-18 06:58:00,62.9,60.8,29.82,NE,44,0.0,0.0,93,0.00,CLR,,0.00,WeatherDisplay:10.37,2013-06-18 10:58:00,
2013-06-18 07:03:00,63.1,61.0,29.82,NE,44,0.0,0.0,93,0.00,CLR,,0.00,WeatherDisplay:10.37,2013-06-18 11:03:00,
2013-06-18 07:08:00,63.4,61.0,29.82,NE,44,0.0,0.0,92,0.00,CLR,,0.00,WeatherDisplay:10.37,2013-06-18 11:08:00,
2013-06-18 07:14:00,63.4,61.0,29.82,NE,44,0.0,0.0,92,0.00,CLR,,0.00,WeatherDisplay:10.37,2013-06-18 11:14:00,
2013-06-18 07:19:00,63.5,61.1,29.82,NE,44,0.0,0.0,92,0.00,CLR,,0.00,WeatherDisplay:10.37,2013-06-18 11:19:00,
2013-06-18 07:24:00,63.9,61.5,29.82,NE,44,0.0,0.0,92,0.00,CLR,,0.00,WeatherDisplay:10.37,2013-06-18 11:24:00,
2013-06-18 07:29:00,64.5,62.1,29.82,NE,44,0.0,0.0,92,0.00,CLR,,0.00,WeatherDisplay:10.37,2013-06-18 11:29:00,
2013-06-18 07:34:00,64.8,62.4,29.82,NE,44,0.0,0.0,92,0.00,CLR,,0.00,WeatherDisplay:10.37,2013-06-18 11:34:00,
2013-06-18 07:39:00,65.2,62.5,29.82,NE,44,0.0,0.0,91,0.00,CLR,,0.00,WeatherDisplay:10.37,2013-06-18 11:39:00,
2013-06-18 07:44:00,65.5,62.5,29.82,NE,42,0.0,0.0,90,0.00,CLR,,0.00,WeatherDisplay:10.37,2013-06-18 11:44:00,
2013-06-18 07:49:00,66.1,63.1,29.82,NE,42,0.0,0.0,90,0.00,CLR,,0.00,WeatherDisplay:10.37,2013-06-18 11:49:00,
2013-06-18 07:54:00,66.9,63.6,29.82,NE,42,0.0,0.0,89,0.00,CLR,,0.00,WeatherDisplay:10.37,2013-06-18 11:54:00,
2013-06-18 08:00:00,67.3,63.6,29.82,NE,44,0.0,0.0,88,0.00,CLR,,0.00,WeatherDisplay:10.37,2013-06-18 12:00:00,
2013-06-18 08:05:00,67.3,63.6,29.82,NE,44,0.0,0.0,88,0.00,CLR,,0.00,WeatherDisplay:10.37,2013-06-18 12:05:00,
2013-06-18 08:10:00,67.6,63.9,29.82,NE,44,0.0,0.0,88,0.00,CLR,,0.00,WeatherDisplay:10.37,2013-06-18 12:10:00,
2013-06-18 08:15:00,68.8,64.8,29.82,NE,44,0.0,0.0,87,0.00,CLR,,0.00,WeatherDisplay:10.37,2013-06-18 12:15:00,
2013-06-18 08:20:00,69.8,65.1,29.82,NE,44,0.0,0.0,85,0.00,CLR,,0.00,WeatherDisplay:10.37,2013-06-18 12:20:00,
2013-06-18 08:26:00,70.1,65.0,29.82,NE,44,0.0,0.0,84,0.00,CLR,,0.00,WeatherDisplay:10.37,2013-06-18 12:26:00,
2013-06-18 08:31:00,70.8,65.7,29.82,WNW,285,0.0,0.0,84,0.00,CLR,,0.00,WeatherDisplay:10.37,2013-06-18 12:31:00,
2013-06-18 08:36:00,71.8,64.9,29.82,WNW,287,0.0,0.0,79,0.00,CLR,,0.00,WeatherDisplay:10.37,2013-06-18 12:36:00,
2013-06-18 08:41:00,72.0,64.8,29.82,WNW,288,0.0,0.0,78,0.00,CLR,,0.00,WeatherDisplay:10.37,2013-06-18 12:41:00,
2013-06-18 08:46:00,72.3,64.3,29.82,NW,313,0.0,0.0,76,0.00,CLR,,0.00,WeatherDisplay:10.37,2013-06-18 12:46:00,
2013-06-18 08:51:00,72.3,63.9,29.82,NW,313,0.0,0.0,75,0.00,CLR,,0.00,WeatherDisplay:10.37,2013-06-18 12:51:00,
2013-06-18 08:56:00,72.7,63.1,29.82,NW,313,0.0,0.0,72,0.00,CLR,,0.00,WeatherDisplay:10.37,2013-06-18 12:56:00,
2013-06-18 09:01:00,73.2,64.0,29.82,NW,313,0.0,0.0,73,0.00,CLR,,0.00,WeatherDisplay:10.37,2013-06-18 13:01:00,
2013-06-18 09:07:00,73.5,64.3,29.82,NW,313,0.0,0.0,73,0.00,CLR,,0.00,WeatherDisplay:10.37,2013-06-18 13:07:00,
2013-06-18 09:12:00,74.2,65.0,29.82,NW,313,0.0,0.0,73,0.00,CLR,,0.00,WeatherDisplay:10.37,2013-06-18 13:12:00,
2013-06-18 09:17:00,74.6,65.8,29.81,NW,313,0.0,0.0,74,0.00,CLR,,0.00,WeatherDisplay:10.37,2013-06-18 13:17:00,
2013-06-18 09:22:00,74.6,65.8,29.81,NW,313,0.0,0.0,74,0.00,CLR,,0.00,WeatherDisplay:10.37,2013-06-18 13:22:00,
2013-06-18 09:27:00,74.7,65.1,29.81,NW,315,0.0,0.0,72,0.00,CLR,,0.00,WeatherDisplay:10.37,2013-06-18 13:27:00,
2013-06-18 09:32:00,74.9,65.7,29.81,NW,315,0.0,0.0,73,0.00,CLR,,0.00,WeatherDisplay:10.37,2013-06-18 13:32:00,
2013-06-18 09:37:00,75.3,65.6,29.81,NNW,328,0.0,0.0,72,0.00,CLR,,0.00,WeatherDisplay:10.37,2013-06-18 13:37:00,
2013-06-18 09:42:00,75.6,65.5,29.81,NNW,329,0.0,0.0,71,0.00,CLR,,0.00,WeatherDisplay:10.37,2013-06-18 13:42:00,
2013-06-18 09:47:00,76.1,65.6,29.81,NNW,329,0.0,0.0,70,0.00,CLR,,0.00,WeatherDisplay:10.37,2013-06-18 13:47:00,
2013-06-18 09:52:00,76.5,66.0,29.81,NW,313,0.0,0.0,70,0.00,CLR,,0.00,WeatherDisplay:10.37,2013-06-18 13:52:00,
2013-06-18 09:57:00,76.1,65.6,29.80,SW,217,0.0,0.0,70,0.00,CLR,,0.00,WeatherDisplay:10.37,2013-06-18 13:57:00,
2013-06-18 10:03:00,76.5,65.6,29.80,SW,217,0.0,0.0,69,0.00,CLR,,0.00,WeatherDisplay:10.37,2013-06-18 14:03:00,
2013-06-18 10:08:00,77.2,65.8,29.80,SE,126,0.0,0.0,68,0.00,CLR,,0.00,WeatherDisplay:10.37,2013-06-18 14:08:00,
2013-06-18 10:13:00,77.9,66.5,29.80,SE,124,0.0,0.0,68,0.00,CLR,,0.00,WeatherDisplay:10.37,2013-06-18 14:13:00,
2013-06-18 10:18:00,78.6,65.8,29.80,SE,124,0.0,0.0,65,0.00,CLR,,0.00,WeatherDisplay:10.37,2013-06-18 14:18:00,
2013-06-18 10:23:00,79.2,65.1,29.80,North,0,0.0,0.0,62,0.00,CLR,,0.00,WeatherDisplay:10.37,2013-06-18 14:23:00,
2013-06-18 10:28:00,79.0,64.9,29.80,North,10,0.0,0.0,62,0.00,CLR,,0.00,WeatherDisplay:10.37,2013-06-18 14:28:00,
2013-06-18 10:34:00,79.4,64.3,29.80,North,10,0.0,0.0,60,0.00,CLR,,0.00,WeatherDisplay:10.37,2013-06-18 14:34:00,
2013-06-18 10:39:00,79.8,63.2,29.80,North,0,0.0,0.0,57,0.00,CLR,,0.00,WeatherDisplay:10.37,2013-06-18 14:39:00,
2013-06-18 10:44:00,80.5,65.3,29.79,North,0,0.0,0.0,60,0.00,CLR,,0.00,WeatherDisplay:10.37,2013-06-18 14:44:00,
2013-06-18 10:49:00,81.2,65.5,29.79,North,0,0.0,0.0,59,0.00,CLR,,0.00,WeatherDisplay:10.37,2013-06-18 14:49:00,
2013-06-18 10:54:00,82.0,65.3,29.79,North,0,0.0,0.0,57,0.00,CLR,,0.00,WeatherDisplay:10.37,2013-06-18 14:54:00,
2013-06-18 10:59:00,81.1,64.4,29.79,East,80,0.0,0.0,57,0.00,CLR,,0.00,WeatherDisplay:10.37,2013-06-18 14:59:00,
2013-06-18 11:04:00,80.7,63.0,29.79,East,80,0.0,0.0,55,0.00,CLR,,0.00,WeatherDisplay:10.37,2013-06-18 15:04:00,
2013-06-18 11:09:00,80.9,63.7,29.79,ENE,68,0.0,0.0,56,0.00,CLR,,0.00,WeatherDisplay:10.37,2013-06-18 15:09:00,
2013-06-18 11:14:00,81.1,63.4,29.79,NW,318,0.0,0.0,55,0.00,CLR,,0.00,WeatherDisplay:10.37,2013-06-18 15:14:00,
2013-06-18 11:19:00,81.1,63.4,29.79,North,356,0.0,0.0,55,0.00,CLR,,0.00,WeatherDisplay:10.37,2013-06-18 15:19:00,
2013-06-18 11:24:00,81.4,63.2,29.79,North,354,0.0,0.0,54,0.00,CLR,,0.00,WeatherDisplay:10.37,2013-06-18 15:24:00,
2013-06-18 11:29:00,82.2,64.9,29.79,North,354,0.0,0.0,56,0.00,CLR,,0.00,WeatherDisplay:10.37,2013-06-18 15:29:00,
2013-06-18 11:34:00,82.4,63.5,29.79,North,354,0.0,0.0,53,0.00,CLR,,0.00,WeatherDisplay:10.37,2013-06-18 15:34:00,
2013-06-18 11:40:00,81.8,65.1,29.78,North,354,0.0,0.0,57,0.00,CLR,,0.00,WeatherDisplay:10.37,2013-06-18 15:40:00,
2013-06-18 11:45:00,81.8,63.0,29.79,North,356,0.0,0.0,53,0.00,CLR,,0.00,WeatherDisplay:10.37,2013-06-18 15:45:00,
2013-06-18 11:50:00,82.0,63.7,29.79,North,356,0.0,0.0,54,0.00,CLR,,0.00,WeatherDisplay:10.37,2013-06-18 15:50:00,
2013-06-18 11:55:00,81.8,62.5,29.79,North,354,0.0,0.0,52,0.00,CLR,,0.00,WeatherDisplay:10.37,2013-06-18 15:55:00,
2013-06-18 12:00:00,80.9,62.7,29.79,SSW,199,0.0,0.0,54,0.00,CLR,,0.00,WeatherDisplay:10.37,2013-06-18 16:00:00,
2013-06-18 12:05:00,80.5,64.9,29.79,South,191,0.0,0.0,59,0.00,CLR,,0.00,WeatherDisplay:10.37,2013-06-18 16:05:00,
2013-06-18 12:10:00,80.7,65.0,29.79,South,191,0.0,0.0,59,0.00,CLR,,0.00,WeatherDisplay:10.37,2013-06-18 16:10:00,
2013-06-18 12:15:00,80.7,64.5,29.79,South,191,0.0,0.0,58,0.00,CLR,,0.00,WeatherDisplay:10.37,2013-06-18 16:15:00,
2013-06-18 12:20:00,80.3,66.1,29.79,SE,143,0.0,0.0,62,0.00,CLR,,0.00,WeatherDisplay:10.37,2013-06-18 16:20:00,
2013-06-18 12:25:00,79.6,66.3,29.78,SSE,147,0.0,0.0,64,0.00,CLR,,0.00,WeatherDisplay:10.37,2013-06-18 16:25:00,
2013-06-18 12:30:00,79.0,65.3,29.77,SE,136,0.0,0.0,63,0.00,CLR,,0.00,WeatherDisplay:10.37,2013-06-18 16:30:00,
2013-06-18 12:35:00,79.2,66.9,29.77,SE,137,0.0,0.0,66,0.00,CLR,,0.00,WeatherDisplay:10.37,2013-06-18 16:35:00,
2013-06-18 12:40:00,79.2,66.0,29.77,SE,141,0.0,0.0,64,0.00,CLR,,0.00,WeatherDisplay:10.37,2013-06-18 16:40:00,
2013-06-18 12:45:00,79.0,65.8,29.76,SE,134,0.0,0.0,64,0.00,CLR,,0.00,WeatherDisplay:10.37,2013-06-18 16:45:00,
2013-06-18 12:51:00,79.2,66.0,29.76,South,175,0.0,0.0,64,0.00,CLR,,0.00,WeatherDisplay:10.37,2013-06-18 16:51:00,
2013-06-18 12:56:00,79.2,66.4,29.75,SSE,165,0.0,0.0,65,0.00,CLR,,0.00,WeatherDisplay:10.37,2013-06-18 16:56:00,
2013-06-18 13:01:00,79.4,66.6,29.75,SSE,152,0.0,0.0,65,0.00,CLR,,0.00,WeatherDisplay:10.37,2013-06-18 17:01:00,
2013-06-18 13:06:00,79.6,66.3,29.76,SSE,157,0.0,0.0,64,0.00,CLR,,0.00,WeatherDisplay:10.37,2013-06-18 17:06:00,
2013-06-18 13:11:00,79.2,66.0,29.76,SSE,160,0.0,0.0,64,0.00,CLR,,0.00,WeatherDisplay:10.37,2013-06-18 17:11:00,
2013-06-18 13:16:00,79.0,66.2,29.76,SSE,147,0.0,0.0,65,0.00,CLR,,0.00,WeatherDisplay:10.37,2013-06-18 17:16:00,
2013-06-18 13:21:00,78.8,66.5,29.76,SSE,147,0.0,0.0,66,0.00,CLR,,0.00,WeatherDisplay:10.37,2013-06-18 17:21:00,
2013-06-18 13:26:00,78.5,66.6,29.76,SE,134,0.0,0.0,67,0.00,CLR,,0.00,WeatherDisplay:10.37,2013-06-18 17:26:00,
2013-06-18 13:31:00,77.9,65.6,29.77,South,179,0.0,0.0,66,0.00,CLR,,0.00,WeatherDisplay:10.37,2013-06-18 17:31:00,
2013-06-18 13:36:00,77.4,65.6,29.77,South,179,0.0,0.0,67,0.00,CLR,,0.00,WeatherDisplay:10.37,2013-06-18 17:36:00,
2013-06-18 13:42:00,77.0,65.2,29.77,South,172,0.0,0.0,67,0.00,CLR,,0.00,WeatherDisplay:10.37,2013-06-18 17:42:00,
2013-06-18 13:47:00,76.7,65.8,29.78,South,175,0.0,0.0,69,0.00,CLR,,0.00,WeatherDisplay:10.37,2013-06-18 17:47:00,
2013-06-18 13:52:00,76.5,65.6,29.78,South,179,0.0,0.0,69,0.00,CLR,,0.00,WeatherDisplay:10.37,2013-06-18 17:52:00,
2013-06-18 13:57:00,76.0,65.1,29.77,South,184,0.0,0.0,69,0.00,CLR,,0.00,WeatherDisplay:10.37,2013-06-18 17:57:00,
2013-06-18 14:02:00,75.6,65.5,29.77,South,184,0.0,0.0,71,0.00,CLR,,0.00,WeatherDisplay:10.37,2013-06-18 18:02:00,
2013-06-18 14:07:00,75.6,65.9,29.77,South,184,0.0,0.0,72,0.00,CLR,,0.00,WeatherDisplay:10.37,2013-06-18 18:07:00,
2013-06-18 14:13:00,75.6,65.9,29.77,South,185,0.0,0.0,72,0.00,CLR,,0.00,WeatherDisplay:10.37,2013-06-18 18:13:00,
2013-06-18 14:18:00,75.3,66.0,29.77,South,191,0.0,0.0,73,0.00,CLR,,0.00,WeatherDisplay:10.37,2013-06-18 18:18:00,
2013-06-18 14:23:00,75.1,66.2,29.76,SSW,192,0.0,0.0,74,0.00,CLR,,0.00,WeatherDisplay:10.37,2013-06-18 18:23:00,
2013-06-18 14:28:00,74.9,66.4,29.76,SSW,192,0.0,0.0,75,0.00,CLR,,0.00,WeatherDisplay:10.37,2013-06-18 18:28:00,
2013-06-18 14:33:00,74.9,66.8,29.76,South,172,0.0,0.0,76,0.00,CLR,,0.00,WeatherDisplay:10.37,2013-06-18 18:33:00,
2013-06-18 14:38:00,75.1,67.4,29.76,South,175,0.0,0.0,77,0.00,CLR,,0.00,WeatherDisplay:10.37,2013-06-18 18:38:00,
2013-06-18 14:43:00,74.9,67.2,29.75,South,175,0.0,0.0,77,0.00,CLR,,0.00,WeatherDisplay:10.37,2013-06-18 18:43:00,
2013-06-18 14:49:00,75.3,68.0,29.74,South,176,0.0,0.0,78,0.00,CLR,,0.00,WeatherDisplay:10.37,2013-06-18 18:49:00,
2013-06-18 14:54:00,75.6,68.3,29.74,South,176,0.0,0.0,78,0.00,CLR,,0.00,WeatherDisplay:10.37,2013-06-18 18:54:00,
2013-06-18 14:59:00,75.3,68.3,29.74,SSW,196,0.0,0.0,79,0.00,CLR,,0.00,WeatherDisplay:10.37,2013-06-18 18:59:00,
2013-06-18 15:04:00,75.3,69.1,29.74,South,182,0.0,1.0,81,0.00,CLR,,0.00,WeatherDisplay:10.37,2013-06-18 19:04:00,
2013-06-18 15:09:00,74.9,69.0,29.74,South,184,1.9,4.6,82,0.00,CLR,,0.00,WeatherDisplay:10.37,2013-06-18 19:09:00,
2013-06-18 15:15:00,74.9,69.4,29.74,South,176,0.0,2.3,83,0.00,CLR,,0.00,WeatherDisplay:10.37,2013-06-18 19:15:00,
2013-06-18 15:20:00,75.1,69.6,29.74,South,176,0.0,0.0,83,0.00,CLR,,0.00,WeatherDisplay:10.37,2013-06-18 19:20:00,
2013-06-18 15:25:00,75.1,69.9,29.74,South,182,0.0,2.0,84,0.00,CLR,,0.00,WeatherDisplay:10.37,2013-06-18 19:25:00,
2013-06-18 15:31:00,74.7,69.2,29.74,SSW,198,0.1,2.3,83,0.00,CLR,,0.00,WeatherDisplay:10.37,2013-06-18 19:31:00,
2013-06-18 15:36:00,74.6,69.4,29.73,SSE,155,0.0,0.0,84,0.00,CLR,,0.00,WeatherDisplay:10.37,2013-06-18 19:36:00,
2013-06-18 15:41:00,74.6,69.4,29.74,SSE,155,0.0,0.0,84,0.00,CLR,,0.00,WeatherDisplay:10.37,2013-06-18 19:41:00,
2013-06-18 15:46:00,74.6,69.4,29.75,SSE,160,0.0,0.0,84,0.00,CLR,,0.00,WeatherDisplay:10.37,2013-06-18 19:46:00,
2013-06-18 15:51:00,74.4,69.2,29.75,SSE,160,0.0,0.0,84,0.00,CLR,,0.00,WeatherDisplay:10.37,2013-06-18 19:51:00,
2013-06-18 15:56:00,74.0,68.9,29.76,SSE,164,0.0,0.0,84,0.00,CLR,,0.00,WeatherDisplay:10.37,2013-06-18 19:56:00,
2013-06-18 16:01:00,73.9,69.1,29.76,SSE,167,0.0,0.0,85,0.00,CLR,,0.00,WeatherDisplay:10.37,2013-06-18 20:01:00,
2013-06-18 16:07:00,73.7,68.9,29.76,SSE,165,0.0,0.0,85,0.00,CLR,,0.00,WeatherDisplay:10.37,2013-06-18 20:07:00,
2013-06-18 16:12:00,73.5,68.7,29.75,SSE,167,0.0,0.0,85,0.00,CLR,,0.00,WeatherDisplay:10.37,2013-06-18 20:12:00,
2013-06-18 16:17:00,73.5,68.7,29.75,South,171,1.1,3.5,85,0.00,CLR,,0.00,WeatherDisplay:10.37,2013-06-18 20:17:00,
2013-06-18 16:22:00,73.3,68.9,29.76,South,171,0.0,0.0,86,0.00,CLR,,0.00,WeatherDisplay:10.37,2013-06-18 20:22:00,
2013-06-18 16:27:00,73.3,69.2,29.76,South,172,0.0,0.0,87,0.00,CLR,,0.00,WeatherDisplay:10.37,2013-06-18 20:27:00,
2013-06-18 16:32:00,73.2,69.1,29.75,South,172,0.0,0.0,87,0.00,CLR,,0.00,WeatherDisplay:10.37,2013-06-18 20:32:00,
2013-06-18 16:37:00,73.0,69.2,29.75,SSE,165,0.0,1.2,88,0.01,RA,,0.01,WeatherDisplay:10.37,2013-06-18 20:37:00,
2013-06-18 16:42:00,72.8,69.0,29.75,SSE,157,0.0,0.0,88,0.01,RA,,0.01,WeatherDisplay:10.37,2013-06-18 20:42:00,
2013-06-18 16:48:00,72.8,69.4,29.75,SSE,154,0.0,0.0,89,0.01,,,0.01,WeatherDisplay:10.37,2013-06-18 20:48:00,
2013-06-18 16:53:00,72.8,69.4,29.75,SSE,154,0.0,0.0,89,0.01,CLR,,0.01,WeatherDisplay:10.37,2013-06-18 20:53:00,
2013-06-18 16:58:00,72.7,69.3,29.75,SSE,154,0.0,0.0,89,0.01,CLR,,0.01,WeatherDisplay:10.37,2013-06-18 20:58:00,
2013-06-18 17:03:00,72.7,69.3,29.75,SSE,155,0.0,0.0,89,0.01,CLR,,0.01,WeatherDisplay:10.37,2013-06-18 21:03:00,
2013-06-18 17:08:00,72.5,68.7,29.76,SSE,155,0.0,0.0,88,0.01,CLR,,0.01,WeatherDisplay:10.37,2013-06-18 21:08:00,
2013-06-18 17:13:00,72.5,69.1,29.76,North,357,0.1,1.2,89,0.01,CLR,,0.01,WeatherDisplay:10.37,2013-06-18 21:13:00,
2013-06-18 17:18:00,68.8,61.7,29.76,NNE,17,13.4,30.0,78,0.02,RA,,0.02,WeatherDisplay:10.37,2013-06-18 21:18:00,
2013-06-18 17:23:00,65.5,59.5,29.77,North,11,12.9,24.2,81,0.02,RA,,0.02,WeatherDisplay:10.37,2013-06-18 21:23:00,
2013-06-18 17:29:00,63.4,58.8,29.78,North,1,8.1,11.5,85,0.09,RA,,0.09,WeatherDisplay:10.37,2013-06-18 21:29:00,
2013-06-18 17:34:00,62.1,58.2,29.79,NNE,30,1.6,8.1,87,0.29,RA,,0.34,WeatherDisplay:10.37,2013-06-18 21:34:00,
2013-06-18 17:39:00,61.6,58.3,29.79,East,89,0.0,0.0,89,0.48,RA,,0.50,WeatherDisplay:10.37,2013-06-18 21:39:00,
2013-06-18 17:44:00,61.6,58.9,29.78,SE,136,0.0,0.0,91,0.56,RA,,0.58,WeatherDisplay:10.37,2013-06-18 21:44:00,
2013-06-18 17:49:00,61.8,59.5,29.79,SE,130,0.0,0.0,92,0.59,RA,,0.60,WeatherDisplay:10.37,2013-06-18 21:49:00,
2013-06-18 17:54:00,62.1,59.7,29.79,SE,130,0.0,0.0,92,0.60,RA,,0.61,WeatherDisplay:10.37,2013-06-18 21:54:00,
2013-06-18 17:59:00,62.1,60.1,29.79,SE,130,0.0,0.0,93,0.61,RA,,0.62,WeatherDisplay:10.37,2013-06-18 21:59:00,
2013-06-18 18:04:00,62.3,60.2,29.79,SE,130,0.0,0.0,93,0.62,RA,,0.63,WeatherDisplay:10.37,2013-06-18 22:04:00,
2013-06-18 18:09:00,62.3,60.2,29.78,SE,128,0.0,0.0,93,0.64,RA,,0.65,WeatherDisplay:10.37,2013-06-18 22:09:00,
2013-06-18 18:14:00,62.3,60.2,29.78,SE,128,0.0,0.0,93,0.65,RA,,0.66,WeatherDisplay:10.37,2013-06-18 22:14:00,
2013-06-18 18:20:00,62.4,60.3,29.77,SE,128,0.0,0.0,93,0.64,RA,,0.66,WeatherDisplay:10.37,2013-06-18 22:20:00,
2013-06-18 18:25:00,62.4,60.7,29.78,SE,128,0.0,0.0,94,0.65,RA,,0.67,WeatherDisplay:10.37,2013-06-18 22:25:00,
2013-06-18 18:30:00,62.4,60.7,29.79,SE,128,0.0,0.0,94,0.52,RA,,0.67,WeatherDisplay:10.37,2013-06-18 22:30:00,
2013-06-18 18:35:00,62.4,60.7,29.79,SE,126,0.0,0.0,94,0.28,,,0.67,WeatherDisplay:10.37,2013-06-18 22:35:00,
2013-06-18 18:40:00,62.1,60.4,29.79,SE,126,0.0,0.0,94,0.16,CLR,,0.67,WeatherDisplay:10.37,2013-06-18 22:40:00,
2013-06-18 18:45:00,62.1,60.4,29.79,SE,126,0.0,0.0,94,0.09,CLR,,0.67,WeatherDisplay:10.37,2013-06-18 22:45:00,
2013-06-18 18:50:00,62.1,60.4,29.79,SE,126,0.0,0.0,94,0.07,CLR,,0.67,WeatherDisplay:10.37,2013-06-18 22:50:00,
2013-06-18 18:55:00,62.1,60.4,29.78,SE,126,0.0,0.0,94,0.06,CLR,,0.67,WeatherDisplay:10.37,2013-06-18 22:55:00,
2013-06-18 19:00:00,62.1,60.4,29.78,SE,126,0.0,0.0,94,0.05,CLR,,0.67,WeatherDisplay:10.37,2013-06-18 23:00:00,
2013-06-18 19:05:00,62.3,60.8,29.78,SE,126,0.0,0.0,95,0.04,CLR,,0.67,WeatherDisplay:10.37,2013-06-18 23:05:00,
2013-06-18 19:10:00,62.3,60.6,29.78,SE,126,0.0,0.0,94,0.02,CLR,,0.67,WeatherDisplay:10.37,2013-06-18 23:10:00,
2013-06-18 19:15:00,62.3,60.8,29.78,SE,126,0.0,0.0,95,0.01,CLR,,0.67,WeatherDisplay:10.37,2013-06-18 23:15:00,
2013-06-18 19:20:00,62.3,60.8,29.78,SE,126,0.0,0.0,95,0.01,CLR,,0.67,WeatherDisplay:10.37,2013-06-18 23:20:00,
2013-06-18 19:26:00,62.3,60.8,29.77,SE,126,0.0,0.0,95,0.00,CLR,,0.67,WeatherDisplay:10.37,2013-06-18 23:26:00,
2013-06-18 19:31:00,62.3,60.8,29.78,SE,126,0.0,0.0,95,0.00,CLR,,0.67,WeatherDisplay:10.37,2013-06-18 23:31:00,
2013-06-18 19:36:00,62.3,60.8,29.78,SE,126,0.0,0.0,95,0.00,CLR,,0.67,WeatherDisplay:10.37,2013-06-18 23:36:00,
2013-06-18 19:41:00,62.6,61.1,29.78,SE,126,0.0,0.0,95,0.00,CLR,,0.67,WeatherDisplay:10.37,2013-06-18 23:41:00,
2013-06-18 19:46:00,62.6,61.1,29.78,SE,126,0.0,0.0,95,0.01,RA,,0.68,WeatherDisplay:10.37,2013-06-18 23:46:00,
2013-06-18 19:51:00,62.4,60.9,29.78,SE,124,0.0,0.0,95,0.01,RA,,0.68,WeatherDisplay:10.37,2013-06-18 23:51:00,
2013-06-18 19:56:00,62.4,60.9,29.78,SE,124,0.0,0.0,95,0.01,,,0.68,WeatherDisplay:10.37,2013-06-18 23:56:00,
2013-06-18 20:02:00,62.3,60.8,29.78,SE,124,0.0,0.0,95,0.01,CLR,,0.68,WeatherDisplay:10.37,2013-06-19 00:02:00,
2013-06-18 20:07:00,62.3,60.8,29.77,SE,124,0.0,0.0,95,0.01,CLR,,0.68,WeatherDisplay:10.37,2013-06-19 00:07:00,
2013-06-18 20:12:00,62.3,60.8,29.78,SE,124,0.0,0.0,95,0.01,CLR,,0.68,WeatherDisplay:10.37,2013-06-19 00:12:00,
2013-06-18 20:17:00,62.4,60.9,29.79,NNE,13,0.0,0.0,95,0.01,CLR,,0.68,WeatherDisplay:10.37,2013-06-19 00:17:00,
2013-06-18 20:22:00,62.4,60.9,29.79,North,0,0.0,0.0,95,0.01,CLR,,0.68,WeatherDisplay:10.37,2013-06-19 00:22:00,
2013-06-18 20:28:00,62.4,60.9,29.79,North,0,0.0,0.0,95,0.01,CLR,,0.68,WeatherDisplay:10.37,2013-06-19 00:28:00,
2013-06-18 20:33:00,62.3,60.8,29.78,North,0,0.0,0.0,95,0.01,CLR,,0.68,WeatherDisplay:10.37,2013-06-19 00:33:00,
2013-06-18 20:38:00,62.1,60.7,29.79,North,0,0.0,0.0,95,0.01,CLR,,0.68,WeatherDisplay:10.37,2013-06-19 00:38:00,
2013-06-18 20:43:00,62.1,60.7,29.79,North,0,0.0,0.0,95,0.01,CLR,,0.68,WeatherDisplay:10.37,2013-06-19 00:43:00,
2013-06-18 20:48:00,62.1,60.7,29.79,North,0,0.0,0.0,95,0.01,CLR,,0.68,WeatherDisplay:10.37,2013-06-19 00:48:00,
2013-06-18 20:53:00,62.1,60.7,29.79,North,0,0.0,0.0,95,0.00,CLR,,0.68,WeatherDisplay:10.37,2013-06-19 00:53:00,
2013-06-18 20:59:00,62.0,60.6,29.78,North,4,0.0,0.0,95,0.00,CLR,,0.68,WeatherDisplay:10.37,2013-06-19 00:59:00,
2013-06-18 21:04:00,62.0,60.6,29.78,North,4,0.0,0.0,95,0.00,CLR,,0.68,WeatherDisplay:10.37,2013-06-19 01:04:00,
2013-06-18 21:09:00,62.1,60.9,29.79,North,1,0.0,0.0,96,0.00,CLR,,0.68,WeatherDisplay:10.37,2013-06-19 01:09:00,
2013-06-18 21:14:00,62.3,61.1,29.79,North,357,0.0,0.0,96,0.00,CLR,,0.68,WeatherDisplay:10.37,2013-06-19 01:14:00,
2013-06-18 21:19:00,62.3,61.1,29.79,North,0,0.0,0.0,96,0.00,CLR,,0.68,WeatherDisplay:10.37,2013-06-19 01:19:00,
2013-06-18 21:24:00,62.4,61.2,29.79,North,357,0.0,0.0,96,0.00,CLR,,0.68,WeatherDisplay:10.37,2013-06-19 01:24:00,
2013-06-18 21:30:00,62.3,61.1,29.79,North,357,0.0,0.0,96,0.00,CLR,,0.68,WeatherDisplay:10.37,2013-06-19 01:30:00,
2013-06-18 21:35:00,62.1,60.7,29.79,North,0,3.7,5.8,95,0.00,CLR,,0.68,WeatherDisplay:10.37,2013-06-19 01:35:00,
2013-06-18 21:40:00,62.0,60.6,29.80,North,0,0.9,2.3,95,0.00,CLR,,0.68,WeatherDisplay:10.37,2013-06-19 01:40:00,
2013-06-18 21:45:00,61.8,60.4,29.80,North,0,0.7,1.2,95,0.00,CLR,,0.68,WeatherDisplay:10.37,2013-06-19 01:45:00,
2013-06-18 21:50:00,61.6,60.2,29.81,North,356,0.6,2.0,95,0.00,CLR,,0.68,WeatherDisplay:10.37,2013-06-19 01:50:00,
2013-06-18 21:55:00,61.6,60.2,29.81,North,359,2.0,4.6,95,0.00,CLR,,0.68,WeatherDisplay:10.37,2013-06-19 01:55:00,
2013-06-18 22:01:00,61.5,60.1,29.81,North,350,0.2,1.2,95,0.00,CLR,,0.68,WeatherDisplay:10.37,2013-06-19 02:01:00,
2013-06-18 22:06:00,61.5,60.1,29.81,North,359,0.1,1.2,95,0.00,CLR,,0.68,WeatherDisplay:10.37,2013-06-19 02:06:00,
2013-06-18 22:11:00,61.3,59.9,29.81,NE,48,0.9,3.5,95,0.00,CLR,,0.68,WeatherDisplay:10.37,2013-06-19 02:11:00,
2013-06-18 22:16:00,61.3,59.9,29.81,North,0,1.3,2.3,95,0.00,CLR,,0.68,WeatherDisplay:10.37,2013-06-19 02:16:00,
2013-06-18 22:21:00,61.2,59.8,29.81,North,0,1.1,3.5,95,0.00,CLR,,0.68,WeatherDisplay:10.37,2013-06-19 02:21:00,
2013-06-18 22:26:00,61.2,59.8,29.81,North,1,0.8,2.3,95,0.00,CLR,,0.68,WeatherDisplay:10.37,2013-06-19 02:26:00,
2013-06-18 22:32:00,61.0,59.6,29.81,North,0,1.8,4.6,95,0.00,CLR,,0.68,WeatherDisplay:10.37,2013-06-19 02:32:00,
2013-06-18 22:37:00,61.0,59.6,29.81,North,357,1.6,3.5,95,0.00,CLR,,0.68,WeatherDisplay:10.37,2013-06-19 02:37:00,
2013-06-18 22:42:00,61.0,59.6,29.82,North,357,0.4,1.2,95,0.00,CLR,,0.68,WeatherDisplay:10.37,2013-06-19 02:42:00,
2013-06-18 22:47:00,60.9,59.5,29.82,North,357,2.3,5.8,95,0.00,CLR,,0.68,WeatherDisplay:10.37,2013-06-19 02:47:00,
2013-06-18 22:52:00,60.7,59.3,29.82,North,359,0.6,2.3,95,0.00,CLR,,0.68,WeatherDisplay:10.37,2013-06-19 02:52:00,
2013-06-18 22:57:00,60.5,59.1,29.82,North,352,1.3,4.0,95,0.00,CLR,,0.68,WeatherDisplay:10.37,2013-06-19 02:57:00,
2013-06-18 23:03:00,59.9,58.2,29.82,North,0,0.7,2.3,94,0.00,CLR,,0.68,WeatherDisplay:10.37,2013-06-19 03:03:00,
2013-06-18 23:08:00,59.8,58.1,29.82,NNE,31,0.5,2.3,94,0.00,CLR,,0.68,WeatherDisplay:10.37,2013-06-19 03:08:00,
2013-06-18 23:13:00,59.6,57.9,29.82,North,0,0.8,3.5,94,0.00,CLR,,0.68,WeatherDisplay:10.37,2013-06-19 03:13:00,
2013-06-18 23:18:00,59.5,57.8,29.82,NNE,16,1.0,3.5,94,0.00,CLR,,0.68,WeatherDisplay:10.37,2013-06-19 03:18:00,
2013-06-18 23:23:00,59.3,57.6,29.83,North,0,0.2,2.3,94,0.00,CLR,,0.68,WeatherDisplay:10.37,2013-06-19 03:23:00,
2013-06-18 23:28:00,59.3,57.3,29.83,North,11,1.3,2.3,93,0.00,CLR,,0.68,WeatherDisplay:10.37,2013-06-19 03:28:00,
2013-06-18 23:33:00,59.2,57.2,29.83,North,0,1.1,1.2,93,0.00,CLR,,0.68,WeatherDisplay:10.37,2013-06-19 03:33:00,
2013-06-18 23:38:00,59.2,57.2,29.83,North,0,0.9,2.3,93,0.00,CLR,,0.68,WeatherDisplay:10.37,2013-06-19 03:38:00,
2013-06-18 23:43:00,59.2,57.2,29.83,North,0,0.2,3.5,93,0.00,CLR,,0.68,WeatherDisplay:10.37,2013-06-19 03:43:00,
2013-06-18 23:48:00,59.3,57.3,29.83,North,0,1.0,2.3,93,0.00,CLR,,0.68,WeatherDisplay:10.37,2013-06-19 03:48:00,
2013-06-18 23:54:00,59.3,57.3,29.84,North,0,1.4,3.5,93,0.00,CLR,,0.68,WeatherDisplay:10.37,2013-06-19 03:54:00,
2013-06-18 23:59:00,59.2,57.2,29.83,NNE,28,0.6,3.0,93,0.00,CLR,,0.68,WeatherDisplay:10.37,2013-06-19 03:59:00,